createdAt,value
2023-05-17T00:01:01.281Z,2.58
2023-05-17T00:03:48.501Z,2.15
2023-05-17T00:06:36.170Z,2.83
2023-05-17T00:09:23.273Z,2.50
2023-05-17T00:12:11.633Z,2.47
2023-05-17T00:14:58.920Z,2.50
2023-05-17T00:17:46.187Z,2.60
2023-05-17T00:20:34.757Z,2.13
2023-05-17T00:23:21.952Z,2.22
2023-05-17T00:26:09.300Z,2.10
2023-05-17T00:28:58.077Z,2.35
2023-05-17T00:31:45.088Z,2.72
2023-05-17T00:34:32.008Z,2.50
2023-05-17T00:37:18.975Z,2.03
2023-05-17T00:40:06.616Z,2.22
2023-05-17T00:42:53.519Z,2.20
2023-05-17T00:45:44.839Z,2.08
2023-05-17T00:48:32.349Z,2.28
2023-05-17T00:51:21.462Z,2.25
2023-05-17T00:54:08.448Z,2.20
2023-05-17T00:56:57.192Z,2.40
2023-05-17T00:59:45.882Z,2.72
2023-05-17T01:02:34.638Z,2.22
2023-05-17T01:05:22.227Z,2.28
2023-05-17T01:08:09.469Z,1.90
2023-05-17T01:11:09.320Z,2.08
2023-05-17T01:14:03.790Z,2.17
2023-05-17T01:16:57.167Z,2.17
2023-05-17T01:19:58.900Z,2.42
2023-05-17T01:22:53.310Z,2.42
2023-05-17T01:25:56.938Z,2.10
2023-05-17T01:28:48.429Z,3.45
2023-05-17T01:31:37.274Z,2.70
2023-05-17T01:34:27.694Z,2.55
2023-05-17T01:37:14.949Z,2.63
2023-05-17T01:40:01.934Z,2.35
2023-05-17T01:42:54.394Z,2.17
2023-05-17T01:45:54.617Z,2.70
2023-05-17T01:48:50.798Z,2.38
2023-05-17T01:51:46.167Z,2.47
2023-05-17T01:54:38.542Z,2.30
2023-05-17T01:57:33.016Z,3.00
2023-05-17T02:00:23.737Z,2.80
2023-05-17T02:03:19.183Z,2.70
2023-05-17T02:06:08.900Z,3.08
2023-05-17T02:08:56.060Z,2.85
2023-05-17T02:11:43.310Z,3.00
2023-05-17T02:14:30.353Z,3.28
2023-05-17T02:17:17.749Z,2.58
2023-05-17T02:20:06.405Z,2.95
2023-05-17T02:22:53.429Z,3.60
2023-05-17T02:25:40.744Z,2.92
2023-05-17T02:28:28.821Z,3.30
2023-05-17T02:31:15.693Z,3.35
2023-05-17T02:34:02.838Z,3.70
2023-05-17T02:36:52.660Z,3.40
2023-05-17T02:39:39.741Z,2.90
2023-05-17T02:42:26.818Z,4.45
2023-05-17T02:45:16.201Z,3.45
2023-05-17T02:48:03.336Z,3.17
2023-05-17T02:50:51.392Z,3.45
2023-05-17T02:53:40.097Z,2.92
2023-05-17T02:56:27.584Z,2.65
2023-05-17T02:59:14.609Z,2.10
2023-05-17T03:02:03.219Z,3.30
2023-05-17T03:04:50.692Z,2.45
2023-05-17T03:07:37.845Z,2.72
2023-05-17T03:10:26.475Z,2.50
2023-05-17T03:13:13.743Z,2.90
2023-05-17T03:16:00.824Z,2.58
2023-05-17T03:18:49.066Z,2.63
2023-05-17T03:21:36.395Z,2.92
2023-05-17T03:24:24.589Z,2.42
2023-05-17T03:27:13.397Z,2.60
2023-05-17T03:30:00.624Z,2.40
2023-05-17T03:32:48.229Z,2.13
2023-05-17T03:35:35.589Z,2.55
2023-05-17T03:38:23.522Z,2.92
2023-05-17T03:41:13.415Z,2.08
2023-05-17T03:44:03.339Z,2.05
2023-05-17T03:46:51.818Z,2.25
2023-05-17T03:49:39.899Z,2.13
2023-05-17T03:52:27.516Z,1.88
2023-05-17T03:55:14.391Z,2.13
2023-05-17T03:58:01.802Z,2.15
2023-05-17T04:00:51.665Z,2.40
2023-05-17T04:03:40.001Z,1.92
2023-05-17T04:06:27.468Z,2.47
2023-05-17T04:09:15.744Z,2.05
2023-05-17T04:12:02.728Z,2.50
2023-05-17T04:14:50.606Z,2.47
2023-05-17T04:17:39.903Z,2.20
2023-05-17T04:20:27.349Z,1.80
2023-05-17T04:23:16.328Z,1.63
2023-05-17T04:26:04.378Z,2.08
2023-05-17T04:28:54.089Z,1.85
2023-05-17T04:31:43.015Z,2.13
2023-05-17T04:34:32.806Z,2.10
2023-05-17T04:37:21.425Z,2.40
2023-05-17T04:40:13.033Z,1.85
2023-05-17T04:43:00.198Z,2.22
2023-05-17T04:45:47.427Z,2.08
2023-05-17T04:48:35.210Z,1.98
2023-05-17T04:51:24.323Z,1.88
2023-05-17T04:54:12.082Z,1.98
2023-05-17T04:57:00.311Z,1.70
2023-05-17T05:00:10.120Z,1.80
2023-05-17T05:02:59.621Z,2.28
2023-05-17T05:05:46.628Z,1.63
2023-05-17T05:08:37.698Z,1.58
2023-05-17T05:11:27.875Z,1.98
2023-05-17T05:14:15.122Z,1.38
2023-05-17T05:17:03.499Z,1.42
2023-05-17T05:19:50.855Z,1.70
2023-05-17T05:22:38.477Z,2.20
2023-05-17T05:25:27.970Z,1.83
2023-05-17T05:28:15.884Z,1.83
2023-05-17T05:31:03.621Z,1.90
2023-05-17T05:34:01.179Z,1.67
2023-05-17T05:36:49.096Z,1.90
2023-05-17T05:39:36.881Z,1.90
2023-05-17T05:42:25.755Z,2.20
2023-05-17T05:45:13.167Z,1.85
2023-05-17T05:48:04.463Z,1.63
2023-05-17T05:50:52.613Z,2.15
2023-05-17T05:53:40.046Z,1.40
2023-05-17T05:56:28.382Z,1.60
2023-05-17T05:59:17.247Z,1.55
2023-05-17T06:02:05.653Z,1.30
2023-05-17T06:04:53.025Z,1.50
2023-05-17T06:07:40.227Z,1.23
2023-05-17T06:10:27.671Z,1.33
2023-05-17T06:13:14.998Z,1.55
2023-05-17T06:16:03.822Z,1.88
2023-05-17T06:18:51.443Z,1.40
2023-05-17T06:21:38.862Z,1.60
2023-05-17T06:24:26.237Z,1.85
2023-05-17T06:27:14.049Z,1.83
2023-05-17T06:30:01.705Z,1.60
2023-05-17T06:32:50.989Z,1.60
2023-05-17T06:35:54.680Z,2.05
2023-05-17T06:38:43.070Z,1.40
2023-05-17T06:41:30.526Z,1.50
2023-05-17T06:44:17.491Z,1.67
2023-05-17T06:47:04.516Z,1.58
2023-05-17T06:49:53.199Z,1.50
2023-05-17T06:52:40.648Z,1.50
2023-05-17T06:55:29.561Z,1.85
2023-05-17T06:58:17.993Z,1.20
2023-05-17T07:01:06.058Z,1.92
2023-05-17T07:03:53.488Z,1.75
2023-05-17T07:06:42.603Z,1.63
2023-05-17T07:09:30.532Z,1.50
2023-05-17T07:12:17.765Z,1.23
2023-05-17T07:15:04.982Z,1.45
2023-05-17T07:17:52.526Z,1.85
2023-05-17T07:20:40.195Z,1.25
2023-05-17T07:23:28.797Z,1.55
2023-05-17T07:26:16.058Z,1.27
2023-05-17T07:29:03.485Z,1.63
2023-05-17T07:31:50.607Z,1.70
2023-05-17T07:34:38.355Z,1.40
2023-05-17T07:37:25.914Z,1.30
2023-05-17T07:40:14.724Z,1.50
2023-05-17T07:43:02.247Z,1.75
2023-05-17T07:45:49.404Z,1.63
2023-05-17T07:48:37.525Z,1.27
2023-05-17T07:51:24.800Z,1.90
2023-05-17T07:54:14.523Z,1.40
2023-05-17T07:57:03.301Z,1.42
2023-05-17T07:59:50.430Z,1.40
2023-05-17T08:02:38.104Z,1.50
2023-05-17T08:05:25.644Z,1.70
2023-05-17T08:08:12.579Z,1.67
2023-05-17T08:10:59.888Z,1.42
2023-05-17T08:13:48.360Z,1.40
2023-05-17T08:16:36.115Z,1.38
2023-05-17T08:19:23.558Z,1.38
2023-05-17T08:22:11.735Z,1.60
2023-05-17T08:24:58.873Z,1.80
2023-05-17T08:27:47.224Z,1.42
2023-05-17T08:30:35.647Z,1.30
2023-05-17T08:33:24.462Z,1.35
2023-05-17T08:36:11.535Z,1.67
2023-05-17T08:38:58.700Z,1.90
2023-05-17T08:41:47.957Z,1.67
2023-05-17T08:44:35.009Z,1.30
2023-05-17T08:47:30.203Z,1.25
2023-05-17T08:50:17.699Z,1.10
2023-05-17T08:53:05.601Z,1.20
2023-05-17T08:55:54.851Z,1.58
2023-05-17T08:58:56.519Z,1.25
2023-05-17T09:01:46.129Z,1.40
2023-05-17T09:04:35.207Z,1.42
2023-05-17T09:07:23.062Z,1.15
2023-05-17T09:10:11.290Z,1.40
2023-05-17T09:12:58.402Z,1.50
2023-05-17T09:15:48.582Z,1.50
2023-05-17T09:18:36.149Z,1.30
2023-05-17T09:21:25.443Z,1.10
2023-05-17T09:24:12.634Z,1.73
2023-05-17T09:27:03.876Z,1.60
2023-05-17T09:29:50.933Z,1.40
2023-05-17T09:32:44.480Z,1.13
2023-05-17T09:35:32.785Z,1.45
2023-05-17T09:38:27.632Z,1.48
2023-05-17T09:41:14.655Z,1.55
2023-05-17T09:44:03.307Z,1.40
2023-05-17T09:46:50.735Z,1.58
2023-05-17T09:49:37.872Z,1.42
2023-05-17T09:52:25.685Z,1.77
2023-05-17T09:55:15.421Z,1.40
2023-05-17T09:58:04.924Z,1.48
2023-05-17T10:00:54.756Z,1.80
2023-05-17T10:03:42.318Z,1.20
2023-05-17T10:06:45.390Z,1.20
2023-05-17T10:09:38.439Z,1.60
2023-05-17T10:12:48.588Z,1.58
2023-05-17T10:15:38.686Z,1.48
2023-05-17T10:18:27.540Z,1.42
2023-05-17T10:21:16.491Z,1.23
2023-05-17T10:24:04.584Z,1.10
2023-05-17T10:26:52.498Z,1.25
2023-05-17T10:29:42.566Z,1.50
2023-05-17T10:32:30.970Z,1.45
2023-05-17T10:35:18.750Z,1.38
2023-05-17T10:38:06.036Z,1.27
2023-05-17T10:40:54.260Z,1.48
2023-05-17T10:43:43.650Z,1.23
2023-05-17T10:46:32.569Z,1.25
2023-05-17T10:49:24.133Z,1.15
2023-05-17T10:52:14.503Z,1.00
2023-05-17T10:55:02.138Z,1.40
2023-05-17T10:58:16.078Z,1.33
2023-05-17T11:01:07.330Z,1.45
2023-05-17T11:03:58.037Z,1.40
2023-05-17T11:06:45.588Z,1.20
2023-05-17T11:09:34.009Z,1.23
2023-05-17T11:12:33.904Z,1.50
2023-05-17T11:15:26.543Z,1.00
2023-05-17T11:18:29.182Z,0.90
2023-05-17T11:21:19.854Z,1.10
2023-05-17T11:24:08.756Z,1.20
2023-05-17T11:26:56.768Z,0.93
2023-05-17T11:29:48.095Z,1.20
2023-05-17T11:32:35.284Z,1.20
2023-05-17T11:35:27.417Z,1.40
2023-05-17T11:38:19.566Z,0.90
2023-05-17T11:44:11.121Z,1.05
2023-05-17T11:47:07.112Z,1.33
2023-05-17T11:49:56.705Z,1.30
2023-05-17T11:52:44.922Z,1.40
2023-05-17T11:55:33.890Z,1.63
2023-05-17T11:58:25.020Z,1.15
2023-05-17T12:01:12.235Z,1.63
2023-05-17T12:03:59.971Z,1.65
2023-05-17T12:06:47.161Z,1.75
2023-05-17T12:09:35.118Z,1.60
2023-05-17T12:12:23.681Z,1.95
2023-05-17T12:15:12.486Z,1.58
2023-05-17T12:17:59.830Z,1.20
2023-05-17T12:21:01.931Z,1.50
2023-05-17T12:23:52.971Z,1.55
2023-05-17T12:26:45.291Z,1.10
2023-05-17T12:29:33.575Z,1.42
2023-05-17T12:32:21.323Z,1.40
2023-05-17T12:35:11.794Z,1.50
2023-05-17T12:37:58.988Z,1.55
2023-05-17T12:40:47.043Z,1.50
2023-05-17T12:43:35.442Z,1.75
2023-05-17T12:46:25.603Z,1.98
2023-05-17T12:49:13.122Z,1.88
2023-05-17T12:52:06.412Z,1.80
2023-05-17T12:54:53.273Z,1.70
2023-05-17T12:57:40.343Z,1.50
2023-05-17T13:00:27.860Z,1.60
2023-05-17T13:03:16.907Z,1.63
2023-05-17T13:06:06.118Z,1.70
2023-05-17T13:09:00.867Z,2.08
2023-05-17T13:11:52.758Z,2.08
2023-05-17T13:14:45.326Z,2.47
2023-05-17T13:17:40.714Z,2.00
2023-05-17T13:20:29.664Z,2.20
2023-05-17T13:23:17.674Z,2.30
2023-05-17T13:26:04.887Z,2.17
2023-05-17T13:28:52.455Z,1.88
2023-05-17T13:31:41.717Z,2.20
2023-05-17T13:34:28.888Z,1.80
2023-05-17T13:37:17.068Z,2.17
2023-05-17T13:40:04.656Z,2.50
2023-05-17T13:42:54.780Z,2.60
2023-05-17T13:45:43.031Z,2.08
2023-05-17T13:48:30.015Z,2.10
2023-05-17T13:51:18.348Z,2.35
2023-05-17T13:54:07.757Z,2.30
2023-05-17T13:56:55.735Z,2.30
2023-05-17T13:59:45.669Z,2.17
2023-05-17T14:02:33.063Z,2.20
2023-05-17T14:05:20.601Z,1.98
2023-05-17T14:08:07.646Z,2.17
2023-05-17T14:10:56.539Z,2.20
2023-05-17T14:13:43.667Z,2.45
2023-05-17T14:16:31.299Z,2.25
2023-05-17T14:19:18.590Z,2.53
2023-05-17T14:22:05.748Z,2.30
2023-05-17T14:24:52.722Z,2.50
2023-05-17T14:27:41.048Z,2.03
2023-05-17T14:30:28.185Z,2.33
2023-05-17T14:33:15.691Z,2.97
2023-05-17T14:36:03.956Z,2.60
2023-05-17T14:38:51.061Z,2.33
2023-05-17T14:41:39.492Z,2.70
2023-05-17T14:44:28.276Z,2.90
2023-05-17T14:47:16.777Z,2.20
2023-05-17T14:50:17.567Z,1.80
2023-05-17T14:53:04.826Z,1.80
2023-05-17T14:55:52.641Z,2.10
2023-05-17T14:58:40.646Z,2.28
2023-05-17T15:01:29.425Z,2.08
2023-05-17T15:04:17.055Z,1.83
2023-05-17T15:07:04.420Z,2.10
2023-05-17T15:09:51.605Z,2.53
2023-05-17T15:12:39.711Z,2.33
2023-05-17T15:15:27.041Z,2.55
2023-05-17T15:18:16.028Z,2.58
2023-05-17T15:21:03.678Z,2.00
2023-05-17T15:23:51.349Z,2.90
2023-05-17T15:26:39.015Z,2.58
2023-05-17T15:29:25.979Z,2.45
2023-05-17T15:32:12.823Z,2.47
2023-05-17T15:35:01.234Z,2.28
2023-05-17T15:37:48.742Z,2.47
2023-05-17T15:40:35.808Z,2.80
2023-05-17T15:43:22.745Z,2.55
2023-05-17T15:46:10.138Z,2.80
2023-05-17T15:48:58.286Z,2.58
2023-05-17T15:51:46.722Z,3.10
2023-05-17T15:54:34.231Z,2.75
2023-05-17T15:57:21.520Z,2.65
2023-05-17T16:00:10.723Z,3.03
2023-05-17T16:02:57.872Z,2.50
2023-05-17T16:05:45.145Z,2.75
2023-05-17T16:08:33.843Z,2.90
2023-05-17T16:11:23.707Z,3.30
2023-05-17T16:14:10.612Z,3.15
2023-05-17T16:16:57.856Z,2.88
2023-05-17T16:19:44.973Z,2.70
2023-05-17T16:22:32.219Z,3.20
2023-05-17T16:25:22.104Z,3.30
2023-05-17T16:28:09.253Z,2.63
2023-05-17T16:30:56.881Z,2.85
2023-05-17T16:33:43.969Z,3.50
2023-05-17T16:36:31.149Z,3.90
2023-05-17T16:39:18.427Z,3.60
2023-05-17T16:42:07.478Z,3.42
2023-05-17T16:44:54.842Z,3.55
2023-05-17T16:47:42.078Z,3.65
2023-05-17T16:50:29.613Z,3.70
2023-05-17T16:53:17.345Z,3.50
2023-05-17T16:56:04.492Z,3.35
2023-05-17T16:58:53.472Z,4.50
2023-05-17T17:01:40.954Z,3.85
2023-05-17T17:04:28.213Z,4.70
2023-05-17T17:07:15.638Z,3.97
2023-05-17T17:10:02.659Z,3.92
2023-05-17T17:12:50.550Z,3.80
2023-05-17T17:15:39.022Z,3.50
2023-05-17T17:18:26.225Z,4.00
2023-05-17T17:21:13.492Z,3.75
2023-05-17T17:24:03.086Z,3.75
2023-05-17T17:26:50.353Z,4.18
2023-05-17T17:29:37.560Z,3.95
2023-05-17T17:32:27.297Z,4.00
2023-05-17T17:35:14.125Z,3.78
2023-05-17T17:38:03.326Z,3.80
2023-05-17T17:40:50.640Z,3.88
2023-05-17T17:43:37.791Z,3.72
2023-05-17T17:46:26.550Z,3.53
2023-05-17T17:49:15.562Z,3.75
2023-05-17T17:52:02.641Z,3.60
2023-05-17T17:54:49.889Z,3.75
2023-05-17T17:57:37.335Z,3.60
2023-05-17T18:00:24.694Z,3.53
2023-05-17T18:03:12.822Z,3.30
2023-05-17T18:06:01.761Z,3.25
2023-05-17T18:08:49.353Z,3.63
2023-05-17T18:11:36.855Z,3.15
2023-05-17T18:14:24.286Z,3.17
2023-05-17T18:17:11.751Z,3.47
2023-05-17T18:19:59.391Z,3.50
2023-05-17T18:22:48.021Z,3.05
2023-05-17T18:25:36.786Z,3.40
2023-05-17T18:28:33.739Z,3.60
2023-05-17T18:31:29.097Z,3.33
2023-05-17T18:34:16.658Z,3.10
2023-05-17T18:37:03.748Z,3.20
2023-05-17T18:39:53.751Z,2.97
2023-05-17T18:42:41.079Z,2.90
2023-05-17T18:45:28.678Z,3.92
2023-05-17T18:48:16.111Z,3.22
2023-05-17T18:51:03.750Z,2.85
2023-05-17T18:53:51.293Z,2.83
2023-05-17T18:56:40.142Z,3.67
2023-05-17T18:59:27.315Z,3.00
2023-05-17T19:02:14.208Z,3.05
2023-05-17T19:05:01.211Z,3.35
2023-05-17T19:07:48.234Z,3.55
2023-05-17T19:10:35.317Z,3.45
2023-05-17T19:13:23.841Z,3.53
2023-05-17T19:16:10.808Z,3.25
2023-05-17T19:18:57.648Z,2.88
2023-05-17T19:21:44.735Z,2.92
2023-05-17T19:24:32.099Z,2.83
2023-05-17T19:27:19.902Z,2.95
2023-05-17T19:30:10.043Z,3.33
2023-05-17T19:32:57.090Z,3.40
2023-05-17T19:35:44.406Z,3.33
2023-05-17T19:38:33.465Z,3.33
2023-05-17T19:41:20.563Z,3.28
2023-05-17T19:44:07.875Z,3.38
2023-05-17T19:46:56.303Z,3.28
2023-05-17T19:49:43.444Z,3.75
2023-05-17T19:52:30.566Z,3.40
2023-05-17T19:55:22.182Z,2.95
2023-05-17T19:58:09.342Z,3.20
2023-05-17T20:00:56.512Z,4.10
2023-05-17T20:03:45.141Z,3.55
2023-05-17T20:06:32.137Z,3.40
2023-05-17T20:09:19.141Z,3.33
2023-05-17T20:12:07.234Z,3.40
2023-05-17T20:14:55.226Z,3.42
2023-05-17T20:17:42.394Z,2.97
2023-05-17T20:20:31.145Z,3.92
2023-05-17T20:23:18.150Z,3.33
2023-05-17T20:26:05.970Z,3.42
2023-05-17T20:28:53.569Z,2.95
2023-05-17T20:31:41.202Z,3.75
2023-05-17T20:34:29.401Z,3.08
2023-05-17T20:37:17.921Z,3.28
2023-05-17T20:40:08.975Z,3.42
2023-05-17T20:42:56.794Z,3.72
2023-05-17T20:45:46.151Z,3.15
2023-05-17T20:48:32.801Z,3.30
2023-05-17T20:51:19.770Z,3.60
2023-05-17T20:54:08.896Z,3.83
2023-05-17T20:56:55.858Z,3.78
2023-05-17T20:59:42.815Z,3.63
2023-05-17T21:02:30.055Z,3.30
2023-05-17T21:05:17.439Z,3.47
2023-05-17T21:08:04.470Z,4.05
2023-05-17T21:10:52.959Z,3.13
2023-05-17T21:13:40.425Z,3.88
2023-05-17T21:16:27.756Z,4.40
2023-05-17T21:19:14.848Z,3.60
2023-05-17T21:22:01.984Z,3.50
2023-05-17T21:24:50.796Z,3.90
2023-05-17T21:27:39.729Z,4.05
2023-05-17T21:30:26.634Z,3.90
2023-05-17T21:33:14.072Z,4.05
2023-05-17T21:36:01.061Z,3.85
2023-05-17T21:38:48.003Z,4.35
2023-05-17T21:41:35.384Z,4.00
2023-05-17T21:44:23.876Z,4.25
2023-05-17T21:47:11.174Z,4.43
2023-05-17T21:49:58.365Z,4.30
2023-05-17T21:52:45.515Z,4.30
2023-05-17T21:55:41.236Z,3.90
2023-05-17T21:58:38.517Z,4.20
2023-05-17T22:01:27.389Z,4.32
2023-05-17T22:04:14.451Z,4.72
2023-05-17T22:07:01.938Z,3.92
2023-05-17T22:09:49.139Z,3.70
2023-05-17T22:12:38.501Z,3.75
2023-05-17T22:15:26.337Z,4.18
2023-05-17T22:18:14.696Z,4.15
2023-05-17T22:21:02.228Z,3.60
2023-05-17T22:23:49.370Z,4.35
2023-05-17T22:26:36.423Z,4.10
2023-05-17T22:29:23.698Z,3.90
2023-05-17T22:32:11.707Z,3.80
2023-05-17T22:35:00.145Z,3.70
2023-05-17T22:37:47.334Z,3.78
2023-05-17T22:40:34.979Z,3.67
2023-05-17T22:43:22.506Z,3.65
2023-05-17T22:46:09.409Z,4.00
2023-05-17T22:48:58.037Z,4.22
2023-05-17T22:51:46.927Z,3.70
2023-05-17T22:54:34.430Z,3.97
2023-05-17T22:57:21.781Z,3.65
2023-05-17T23:00:11.489Z,4.10
2023-05-17T23:02:59.159Z,3.80
2023-05-17T23:05:47.138Z,4.10
2023-05-17T23:08:35.675Z,3.90
2023-05-17T23:11:23.009Z,3.70
2023-05-17T23:14:11.398Z,3.83
2023-05-17T23:17:02.507Z,3.67
2023-05-17T23:19:51.291Z,4.00
2023-05-17T23:22:39.339Z,4.25
2023-05-17T23:25:29.225Z,4.32
2023-05-17T23:28:18.406Z,4.45
2023-05-17T23:31:05.969Z,4.75
2023-05-17T23:33:53.261Z,4.22
2023-05-17T23:36:41.144Z,4.30
2023-05-17T23:39:28.188Z,4.18
2023-05-17T23:42:16.465Z,4.22
2023-05-17T23:45:04.299Z,4.00
2023-05-17T23:47:51.754Z,4.85
2023-05-17T23:50:39.234Z,4.43
2023-05-17T23:53:28.255Z,5.00
2023-05-17T23:56:18.232Z,4.45
2023-05-17T23:59:06.530Z,4.30
